Latest Coastal Weather Observations for Smithton

IDT60701

Issued at 12:55 pm EDT Sunday 26 October 2014 (issued every 10 minutes, with the page automatically refreshed every 10 minutes)

About coastal observations | Map of coastal stations | Coastal observations for TAS | Marine services | Other Formats
Station Details ID: 091292 Name: SMITHTON AERODROME Lat: -40.83 Lon: 145.08 Height: 7.5 m
Data from the previous 72 hours. | See also: Recent months at Smithton
Date/Time
EDT
Temp

°C
Wind Pressure Rain
since 9am
mm
Weather Cloud Vis
km
Sea
Height
m
Swell
Dir
 
Speed
knots
Gust
knots
hPa Trend Height
m
Period
s
Dir
26/12:30pm 17.0 NNE 8 10 1012.5 - 0.0 - - - - - - -
26/12:00pm 17.3 N 5 8 1012.9 - 0.0 - - - - - - -
26/11:30am 15.2 NNW 5 7 1013.1 - 0.0 - - - - - - -
26/11:00am 15.4 W 2 4 1013.1 - 0.0 - - - - - - -
26/10:30am 15.2 W 4 5 1013.3 - 0.0 - - - - - - -
26/10:00am 15.3 WSW 5 7 1013.4 - 0.0 - - - - - - -
26/09:30am 14.5 ESE 3 5 1013.3 - 0.0 - - - - - - -
26/09:00am 14.4 ESE 4 5 1013.2 - 0.0 - - - - - - -
26/08:30am 13.6 ESE 4 5 1013.3 - 0.0 - - - - - - -
26/08:00am 13.4 ESE 4 6 1013.4 - 0.0 - - - - - - -
26/07:30am 13.3 CALM 0 0 1013.2 - 0.0 - - - - - - -
26/07:00am 12.9 ESE 3 5 1013.1 - 0.0 - - - - - - -
26/06:30am 12.5 ENE 4 5 1012.8 - 0.0 - - - - - - -
26/06:00am 12.5 E 5 7 1012.5 - 0.0 - - - - - - -
26/05:30am 12.3 E 7 8 1012.5 - 0.0 - - - - - - -
26/05:00am 12.7 E 6 7 1012.5 - 0.0 - - - - - - -
26/04:30am 12.9 ENE 5 7 1012.5 - 0.0 - - - - - - -
26/04:00am 13.0 NE 6 9 1012.8 - 0.0 - - - - - - -
26/03:30am 13.1 ENE 7 11 1013.0 - 0.0 - - - - - - -
26/03:00am 13.0 E 9 13 1013.0 - 0.0 - - - - - - -
26/02:30am 13.3 ENE 10 14 1013.2 - 0.0 - - - - - - -
26/02:00am 13.3 ENE 11 15 1013.4 - 0.0 - - - - - - -
26/01:30am 13.4 E 10 13 1014.0 - 0.0 - - - - - - -
26/01:00am 12.3 SE 7 9 1014.2 - 0.0 - - - - - - -
26/12:30am 12.6 SSE 8 11 1015.1 - 0.0 - - - - - - -
26/12:00am 13.1 SSE 7 9 1015.2 - 0.0 - - - - - - -
 
Date/Time
EDT
Temp

°C
Wind Pressure Rain
since 9am
mm
Weather Cloud Vis
km
Sea
Height
m
Swell
Dir
 
Speed
knots
Gust
knots
hPa Trend Height
m
Period
s
Dir
25/11:30pm 13.1 SE 6 9 1015.3 - 0.0 - - - - - - -
25/11:00pm 12.1 S 5 6 1015.6 - 0.0 - - - - - - -
25/10:30pm 10.9 S 5 7 1015.7 - 0.0 - - - - - - -
25/10:00pm 9.5 S 6 7 1015.9 - 0.0 - - - - - - -
25/09:30pm 10.5 CALM 0 2 1015.5 - 0.0 - - - - - - -
25/09:00pm 10.8 S 4 5 1015.4 - 0.0 - - - - - - -
25/08:30pm 12.2 S 5 6 1015.1 - 0.0 - - - - - - -
25/08:00pm 12.9 S 9 11 1015.0 - 0.0 - - - - - - -
25/07:30pm 14.4 SW 13 16 1014.5 - 0.0 - - - - - - -
25/07:00pm 15.8 SW 14 18 1014.3 - 0.0 - - - - - - -
25/06:30pm 17.4 SW 12 16 1014.0 - 0.0 - - - - - - -
25/06:00pm 18.2 SW 12 16 1013.6 - 0.0 - - - - - - -
25/05:30pm 19.3 WSW 13 17 1013.4 - 0.0 - - - - - - -
25/05:00pm 20.2 WSW 13 16 1013.1 - 0.0 - - - - - - -
25/04:30pm 20.9 WSW 10 14 1013.4 - 0.0 - - - - - - -
25/04:00pm 21.1 WSW 10 13 1013.6 - 0.0 - - - - - - -
25/03:30pm 20.2 SW 10 13 1014.0 - 0.0 - - - - - - -
25/03:00pm 19.7 SW 10 15 1014.4 - 0.0 - - - - - - -
25/02:30pm 19.8 SW 9 14 1014.7 - 0.0 - - - - - - -
25/02:00pm 18.9 SW 11 16 1015.0 - 0.0 - - - - - - -
25/01:30pm 18.3 SSW 12 15 1015.2 - 0.0 - - - - - - -
25/01:00pm 17.4 S 12 16 1015.2 - 0.0 - - - - - - -
25/12:30pm 16.9 SSW 12 17 1015.8 - 0.0 - - - - - - -
25/12:00pm 16.2 SSW 13 18 1016.1 - 0.0 - - - - - - -
25/11:30am 15.7 SW 13 17 1016.6 - 0.0 - - - - - - -
25/11:00am 15.3 SSW 13 18 1016.8 - 0.0 - - - - - - -
25/10:30am 15.1 S 13 19 1016.6 - 0.0 - - - - - - -
25/10:00am 15.2 S 11 16 1016.5 - 0.0 - - - - - - -
25/09:30am 14.3 SSW 12 15 1016.7 - 0.0 - - - - - - -
25/09:00am 13.7 SSW 9 12 1016.8 - 0.0 - - - - - - -
25/08:30am 13.1 SSW 9 13 1016.6 - 0.0 - - - - - - -
25/08:00am 13.0 SW 9 11 1016.3 - 0.0 - - - - - - -
25/07:30am 12.7 SW 9 11 1015.5 - 0.0 - - - - - - -
25/07:00am 12.4 SW 9 11 1015.0 - 0.0 - - - - - - -
25/06:30am 12.4 SW 11 16 1015.0 - 0.0 - - - - - - -
25/06:00am 12.6 SW 12 15 1014.7 - 0.0 - - - - - - -
25/05:30am 12.9 WSW 12 17 1014.2 - 0.0 - - - - - - -
25/05:00am 13.1 WSW 10 13 1013.8 - 0.0 - - - - - - -
25/04:30am 13.2 WSW 9 12 1013.4 - 0.0 - - - - - - -
25/04:00am 12.9 WSW 9 12 1013.2 - 0.0 - - - - - - -
25/03:30am 13.3 WSW 11 14 1013.1 - 0.0 - - - - - - -
25/03:00am 13.3 WSW 11 16 1012.9 - 0.0 - - - - - - -
25/02:30am 13.6 SW 12 15 1012.9 - 0.0 - - - - - - -
25/02:00am 13.7 WSW 12 15 1012.9 - 0.0 - - - - - - -
25/01:30am 13.8 WSW 11 15 1012.9 - 0.0 - - - - - - -
25/01:00am 13.9 WSW 12 17 1013.2 - 0.0 - - - - - - -
25/12:30am 13.9 WSW 14 17 1013.2 - 0.0 - - - - - - -
25/12:00am 14.1 WSW 12 15 1013.0 - 0.0 - - - - - - -
 
Date/Time
EDT
Temp

°C
Wind Pressure Rain
since 9am
mm
Weather Cloud Vis
km
Sea
Height
m
Swell
Dir
 
Speed
knots
Gust
knots
hPa Trend Height
m
Period
s
Dir
24/11:30pm 14.1 WSW 10 13 1012.4 - 0.0 - - - - - - -
24/11:00pm 14.1 WSW 9 11 1012.5 - 0.0 - - - - - - -
24/10:30pm 14.2 WSW 10 13 1012.5 - 0.0 - - - - - - -
24/10:00pm 14.1 W 9 11 1012.3 - 0.0 - - - - - - -
24/09:30pm 14.0 W 9 13 1012.0 - 0.0 - - - - - - -
24/09:00pm 13.7 WSW 9 11 1011.8 - 0.0 - - - - - - -
24/08:30pm 14.4 W 10 12 1011.4 - 0.0 - - - - - - -
24/08:00pm 14.5 CALM 0 0 1010.9 - 0.0 - - - - - - -
24/07:30pm 14.7 NNE 1 4 1010.8 - 0.0 - - - - - - -
24/07:00pm 14.8 NE 7 8 1010.8 - 0.0 - - - - - - -
24/06:30pm 15.0 NE 8 10 1010.5 - 0.0 - - - - - - -
24/06:00pm 15.3 ENE 10 14 1010.1 - 0.0 - - - - - - -
24/05:30pm 15.7 ENE 13 19 1009.5 - 0.0 - - - - - - -
24/05:00pm 15.6 E 14 19 1009.5 - 0.0 - - - - - - -
24/04:30pm 15.6 E 14 20 1010.0 - 0.0 - - - - - - -
24/04:00pm 15.6 ENE 13 22 1010.6 - 0.0 - - - - - - -
24/03:30pm 15.8 E 17 25 1010.3 - 0.0 - - - - - - -
24/03:00pm 15.8 E 19 26 1010.6 - 0.0 - - - - - - -
24/02:30pm 15.9 E 19 27 1011.1 - 0.0 - - - - - - -
24/02:01pm 15.6 E 20 30 1011.2 - 0.0 - - - - - - -
24/02:00pm 15.6 E 21 30 1011.1 - 0.0 - - - - - - -
24/01:38pm 15.5 E 20 30 1011.2 - 0.0 - - - - - - -
24/01:30pm 15.6 E 21 30 1011.2 - 0.0 - - - - - - -
24/01:16pm 15.4 E 22 32 1011.2 - 0.0 - - - - - - -
24/01:00pm 15.6 E 22 31 1011.7 - 0.0 - - - - - - -
24/12:37pm 15.6 E 19 29 1011.9 - 0.0 - - - - - - -
24/12:30pm 15.6 E 21 29 1011.8 - 0.0 - - - - - - -
24/12:08pm 15.5 E 21 31 1012.2 - 0.0 - - - - - - -
24/12:00pm 15.2 E 22 31 1012.2 - 0.0 - - - - - - -
24/11:40am 14.7 E 22 32 1012.6 - 0.0 - - - - - - -
24/11:30am 14.9 E 21 30 1012.9 - 0.0 - - - - - - -
24/11:00am 14.8 E 22 33 1013.3 - 0.0 - - - - - - -
24/10:32am 14.7 E 24 34 1013.9 - 0.0 - - - - - - -
24/10:30am 14.9 E 23 32 1013.9 - 0.0 - - - - - - -
24/10:00am 13.6 E 23 34 1014.2 - 0.0 - - - - - - -
24/09:30am 13.5 E 22 32 1014.3 - 0.0 - - - - - - -
24/09:00am 12.6 E 23 33 1014.9 - 0.0 - - - - - - -
24/08:40am 12.3 E 22 32 1015.1 - 0.0 - - - - - - -
24/08:30am 12.2 E 21 28 1015.5 - 0.0 - - - - - - -
24/08:01am 12.0 E 23 33 1015.3 - 0.0 - - - - - - -
24/08:00am 12.0 E 24 33 1015.3 - 0.0 - - - - - - -
24/07:30am 12.1 E 24 36 1015.6 - 0.0 - - - - - - -
24/07:25am 12.2 E 22 36 1015.4 - 0.0 - - - - - - -
24/07:00am 12.3 E 24 32 1016.0 - 0.0 - - - - - - -
24/06:44am 12.3 E 23 33 1015.9 - 0.0 - - - - - - -
24/06:30am 12.3 E 23 31 1016.1 - 0.0 - - - - - - -
24/06:00am 12.2 E 23 34 1016.5 - 0.0 - - - - - - -
24/05:30am 12.2 E 23 34 1016.8 - 0.0 - - - - - - -
24/05:00am 12.2 E 23 34 1017.1 - 0.0 - - - - - - -
24/04:30am 12.1 E 19 31 1017.2 - 0.0 - - - - - - -
24/04:03am 12.2 E 22 32 1017.4 - 0.0 - - - - - - -
24/04:00am 12.3 E 23 32 1017.2 - 0.0 - - - - - - -
24/03:30am 12.2 E 22 35 1017.9 - 0.0 - - - - - - -
24/03:17am 12.2 E 21 31 1018.3 - 0.0 - - - - - - -
24/03:00am 12.2 E 22 31 1018.5 - 0.0 - - - - - - -
24/02:34am 12.1 E 22 33 1018.8 - 0.0 - - - - - - -
24/02:30am 12.1 E 21 27 1018.9 - 0.0 - - - - - - -
24/02:01am 12.0 E 22 32 1019.1 - 0.0 - - - - - - -
24/02:00am 12.0 E 22 30 1019.3 - 0.0 - - - - - - -
24/01:37am 12.1 E 22 32 1019.8 - 0.0 - - - - - - -
24/01:30am 12.1 E 24 32 1019.9 - 0.0 - - - - - - -
24/01:01am 12.3 E 21 31 1020.5 - 0.0 - - - - - - -
24/01:00am 12.3 E 22 31 1020.6 - 0.0 - - - - - - -
24/12:30am 12.2 E 22 34 1020.7 - 0.0 - - - - - - -
24/12:00am 12.2 E 22 32 1021.1 - 0.0 - - - - - - -
 
Date/Time
EDT
Temp

°C
Wind Pressure Rain
since 9am
mm
Weather Cloud Vis
km
Sea
Height
m
Swell
Dir
 
Speed
knots
Gust
knots
hPa Trend Height
m
Period
s
Dir
23/11:30pm 12.2 ENE 19 32 1021.4 - 0.0 - - - - - - -
23/11:13pm 12.2 E 16 31 1021.4 - 0.0 - - - - - - -
23/11:00pm 12.1 E 18 24 1021.8 - 0.0 - - - - - - -
23/10:48pm 12.3 E 18 28 1021.8 - 0.0 - - - - - - -
23/10:30pm 12.4 ENE 18 26 1022.2 - 0.0 - - - - - - -
23/10:00pm 12.4 ENE 16 22 1022.4 - 0.0 - - - - - - -
23/09:30pm 12.6 ENE 15 21 1022.5 - 0.0 - - - - - - -
23/09:00pm 12.3 E 13 17 1022.2 - 0.0 - - - - - - -
23/08:30pm 12.5 ENE 12 15 1022.1 - 0.0 - - - - - - -
23/08:00pm 12.6 E 11 16 1021.9 - 0.0 - - - - - - -
23/07:30pm 13.2 E 13 17 1022.0 - 0.0 - - - - - - -
23/07:00pm 13.9 ENE 15 19 1021.9 - 0.0 - - - - - - -
23/06:30pm 14.4 ENE 16 22 1021.8 - 0.0 - - - - - - -
23/06:00pm 15.1 ENE 17 22 1021.8 - 0.0 - - - - - - -
23/05:30pm 15.8 E 15 22 1021.8 - 0.0 - - - - - - -
23/05:00pm 16.3 ENE 16 21 1021.8 - 0.0 - - - - - - -
23/04:30pm 16.5 ENE 17 21 1021.8 - 0.0 - - - - - - -
23/04:00pm 17.0 NE 16 20 1021.9 - 0.0 - - - - - - -
23/03:30pm 16.8 ENE 17 21 1022.1 - 0.0 - - - - - - -
23/03:00pm 17.2 NE 16 21 1022.3 - 0.0 - - - - - - -
23/02:30pm 16.9 NE 16 22 1022.5 - 0.0 - - - - - - -
23/02:00pm 16.8 NE 15 20 1022.5 - 0.0 - - - - - - -
23/01:30pm 16.6 NE 14 19 1022.5 - 0.0 - - - - - - -
23/01:00pm 15.3 NE 16 19 1022.7 - 0.0 - - - - - - -

Other Formats:

Comma delimited format used in spreadsheet applications
http://www.bom.gov.au/fwo/IDT60701/IDT60701.94953.axf

JavaScript Object Notation format (JSON) in row-major order
http://www.bom.gov.au/fwo/IDT60701/IDT60701.94953.json